createdAt,value
2019-05-25T00:00:37.413Z,99220.42
2019-05-25T00:04:58.147Z,99214.14
2019-05-25T00:09:18.154Z,99209.63
2019-05-25T00:13:38.823Z,99218.09
2019-05-25T00:17:59.410Z,99220.53
2019-05-25T00:22:20.177Z,99217.97
2019-05-25T00:26:40.953Z,99221.54
2019-05-25T00:31:01.616Z,99221.96
2019-05-25T00:35:22.029Z,99221.98
2019-05-25T00:39:42.549Z,99220.60
2019-05-25T00:44:02.923Z,99220.81
2019-05-25T00:48:23.254Z,99223.97
2019-05-25T00:52:43.783Z,99208.77
2019-05-25T00:57:04.536Z,99214.33
2019-05-25T01:01:24.769Z,99217.89
2019-05-25T01:05:45.890Z,99213.55
2019-05-25T01:10:06.707Z,99222.63
2019-05-25T01:14:27.379Z,99214.44
2019-05-25T01:18:47.471Z,99216.13
2019-05-25T01:23:07.930Z,99220.37
2019-05-25T01:27:28.142Z,99213.45
2019-05-25T01:31:48.875Z,99216.40
2019-05-25T01:36:09.232Z,99215.37
2019-05-25T01:40:29.340Z,99219.70
2019-05-25T01:44:49.456Z,99220.14
2019-05-25T01:49:09.919Z,99221.86
2019-05-25T01:53:30.577Z,99218.86
2019-05-25T01:57:50.681Z,99211.93
2019-05-25T02:02:11.602Z,99213.48
2019-05-25T02:06:32.291Z,99217.39
2019-05-25T02:10:52.807Z,99216.37
2019-05-25T02:15:13.199Z,99221.64
2019-05-25T02:19:33.804Z,99222.77
2019-05-25T02:23:54.567Z,99228.02
2019-05-25T02:28:15.029Z,99227.52
2019-05-25T02:32:35.578Z,99226.88
2019-05-25T02:36:56.812Z,99237.31
2019-05-25T02:41:17.618Z,99236.44
2019-05-25T02:45:38.300Z,99242.62
2019-05-25T02:49:58.591Z,99242.62
2019-05-25T02:54:18.735Z,99240.64
2019-05-25T02:58:39.425Z,99244.27
2019-05-25T03:03:00.569Z,99240.56
2019-05-25T03:07:22.198Z,99236.42
2019-05-25T03:11:42.717Z,99236.42
2019-05-25T03:16:03.160Z,99249.59
2019-05-25T03:20:23.222Z,99248.86
2019-05-25T03:24:43.281Z,99248.72
2019-05-25T03:29:03.709Z,99240.83
2019-05-25T03:33:23.811Z,99247.67
2019-05-25T03:37:44.226Z,99244.88
2019-05-25T03:42:04.597Z,99251.69
2019-05-25T03:46:25.211Z,99254.73
2019-05-25T03:50:46.034Z,99254.73
2019-05-25T03:55:06.347Z,99268.09
2019-05-25T03:59:27.089Z,99271.42
2019-05-25T04:03:47.843Z,99277.39
2019-05-25T04:08:08.380Z,99278.41
2019-05-25T04:12:28.632Z,99289.54
2019-05-25T04:16:49.064Z,99294.20
2019-05-25T04:21:09.480Z,99295.50
2019-05-25T04:25:29.493Z,99293.23
2019-05-25T04:29:49.652Z,99305.83
2019-05-25T04:34:10.203Z,99305.83
2019-05-25T04:38:30.382Z,99307.08
2019-05-25T04:42:50.478Z,99307.08
2019-05-25T04:47:25.894Z,99311.03
2019-05-25T04:51:33.174Z,99313.25
2019-05-25T04:55:53.313Z,99325.57
2019-05-25T05:00:14.164Z,99325.57
2019-05-25T05:04:34.763Z,99319.73
2019-05-25T05:08:55.318Z,99319.73
2019-05-25T05:13:15.804Z,99331.80
2019-05-25T05:17:36.087Z,99338.07
2019-05-25T05:21:56.158Z,99331.13
2019-05-25T05:26:16.358Z,99333.66
2019-05-25T05:30:36.515Z,99331.75
2019-05-25T05:34:57.096Z,99329.28
2019-05-25T05:39:18.420Z,99329.88
2019-05-25T05:43:39.850Z,99303.70
2019-05-25T05:48:00.961Z,99348.41
2019-05-25T05:52:23.379Z,99341.22
2019-05-25T05:56:43.836Z,99341.22
2019-05-25T06:01:04.681Z,99346.58
2019-05-25T06:05:25.035Z,99342.97
2019-05-25T06:09:45.636Z,99349.42
2019-05-25T06:14:06.906Z,99347.61
2019-05-25T06:18:27.568Z,99353.47
2019-05-25T06:22:48.241Z,99357.97
2019-05-25T06:27:09.063Z,99362.34
2019-05-25T06:31:29.364Z,99359.61
2019-05-25T06:35:49.621Z,99356.45
2019-05-25T06:40:10.780Z,99372.83
2019-05-25T06:44:31.530Z,99369.12
2019-05-25T06:48:52.281Z,99370.13
2019-05-25T06:53:12.557Z,99371.98
2019-05-25T06:57:42.713Z,99375.11
2019-05-25T07:01:55.195Z,99371.84
2019-05-25T07:06:16.224Z,99372.46
2019-05-25T07:10:36.326Z,99373.44
2019-05-25T07:14:57.275Z,99381.93
2019-05-25T07:19:17.943Z,99386.88
2019-05-25T07:23:38.416Z,99387.62
2019-05-25T07:28:00.438Z,99391.89
2019-05-25T07:32:21.055Z,99389.24
2019-05-25T07:36:41.636Z,99381.53
2019-05-25T07:41:02.563Z,99393.39
2019-05-25T07:45:22.789Z,99387.86
2019-05-25T07:49:43.585Z,99398.33
2019-05-25T07:54:04.056Z,99391.61
2019-05-25T07:58:24.821Z,99392.55
2019-05-25T08:02:44.975Z,99393.16
2019-05-25T08:07:06.037Z,99393.64
2019-05-25T08:11:26.327Z,99398.45
2019-05-25T08:15:47.185Z,99395.88
2019-05-25T08:20:07.440Z,99398.23
2019-05-25T08:24:28.032Z,99399.66
2019-05-25T08:28:48.705Z,99409.14
2019-05-25T08:33:08.991Z,99405.68
2019-05-25T08:37:29.718Z,99412.23
2019-05-25T08:41:50.225Z,99403.31
2019-05-25T08:46:10.724Z,99409.96
2019-05-25T08:50:38.303Z,99407.39
2019-05-25T08:54:54.184Z,99411.77
2019-05-25T08:59:15.080Z,99417.89
2019-05-25T09:03:36.093Z,99418.38
2019-05-25T09:07:56.503Z,99411.47
2019-05-25T09:12:16.807Z,99416.32
2019-05-25T09:16:37.092Z,99424.32
2019-05-25T09:20:57.605Z,99421.36
2019-05-25T09:25:18.375Z,99417.12
2019-05-25T09:29:38.762Z,99415.39
2019-05-25T09:33:59.298Z,99424.37
2019-05-25T09:38:20.632Z,99427.02
2019-05-25T09:42:41.097Z,99425.47
2019-05-25T09:47:01.237Z,99429.97
2019-05-25T09:51:22.475Z,99424.23
2019-05-25T09:55:42.637Z,99435.67
2019-05-25T10:00:04.959Z,99427.34
2019-05-25T10:04:25.114Z,99425.42
2019-05-25T10:08:45.130Z,99421.61
2019-05-25T10:13:05.333Z,99420.51
2019-05-25T10:17:26.632Z,99429.95
2019-05-25T10:21:47.064Z,99426.86
2019-05-25T10:26:07.744Z,99423.84
2019-05-25T10:30:28.166Z,99433.54
2019-05-25T10:34:48.897Z,99429.88
2019-05-25T10:39:09.372Z,99425.22
2019-05-25T10:43:30.483Z,99411.30
2019-05-25T10:47:51.139Z,99417.77
2019-05-25T10:52:12.174Z,99417.78
2019-05-25T10:56:32.603Z,99409.22
2019-05-25T11:00:53.131Z,99419.27
2019-05-25T11:05:16.161Z,99413.55
2019-05-25T11:09:36.841Z,99416.38
2019-05-25T11:13:57.862Z,99412.69
2019-05-25T11:18:20.810Z,99405.91
2019-05-25T11:22:41.767Z,99406.55
2019-05-25T11:27:02.939Z,99405.66
2019-05-25T11:31:24.393Z,99403.14
2019-05-25T11:35:45.417Z,99401.72
2019-05-25T11:40:07.810Z,99400.27
2019-05-25T11:44:28.503Z,99402.62
2019-05-25T11:48:49.124Z,99394.52
2019-05-25T11:53:09.306Z,99395.25
2019-05-25T11:57:30.556Z,99398.16
2019-05-25T12:01:51.867Z,99391.48
2019-05-25T12:06:12.706Z,99392.71
2019-05-25T12:10:33.202Z,99387.39
2019-05-25T12:14:54.359Z,99384.37
2019-05-25T12:19:15.179Z,99376.78
2019-05-25T12:23:36.483Z,99381.59
2019-05-25T12:27:57.125Z,99382.97
2019-05-25T12:32:17.737Z,99379.02
2019-05-25T12:36:38.772Z,99392.69
2019-05-25T12:40:59.733Z,99388.89
2019-05-25T12:45:22.418Z,99372.98
2019-05-25T12:49:50.638Z,99371.84
2019-05-25T12:54:05.877Z,99378.39
2019-05-25T12:58:25.958Z,99374.80
2019-05-25T13:02:46.595Z,99366.27
2019-05-25T13:07:07.621Z,99363.81
2019-05-25T13:11:28.580Z,99366.49
2019-05-25T13:15:49.700Z,99358.70
2019-05-25T13:20:10.240Z,99359.22
2019-05-25T13:24:30.479Z,99361.14
2019-05-25T13:28:51.787Z,99359.36
2019-05-25T13:33:12.104Z,99359.48
2019-05-25T13:37:33.140Z,99364.91
2019-05-25T13:41:53.783Z,99357.65
2019-05-25T13:46:14.747Z,99355.20
2019-05-25T13:50:35.162Z,99356.67
2019-05-25T13:54:55.750Z,99363.17
2019-05-25T13:59:16.314Z,99364.57
2019-05-25T14:03:36.995Z,99355.99
2019-05-25T14:07:57.778Z,99352.25
2019-05-25T14:12:19.449Z,99354.12
2019-05-25T14:16:43.665Z,99349.00
2019-05-25T14:21:04.437Z,99343.98
2019-05-25T14:25:25.069Z,99351.00
2019-05-25T14:29:45.946Z,99344.67
2019-05-25T14:34:06.584Z,99352.55
2019-05-25T14:38:26.972Z,99342.70
2019-05-25T14:42:47.649Z,99347.75
2019-05-25T14:47:08.241Z,99344.03
2019-05-25T14:51:29.241Z,99340.25
2019-05-25T14:55:50.057Z,99330.85
2019-05-25T15:00:10.731Z,99329.38
2019-05-25T15:04:32.166Z,99327.06
2019-05-25T15:08:52.738Z,99329.52
2019-05-25T15:13:13.913Z,99317.95
2019-05-25T15:17:37.308Z,99312.45
2019-05-25T15:21:57.359Z,99317.88
2019-05-25T15:26:18.618Z,99316.05
2019-05-25T15:30:39.632Z,99323.23
2019-05-25T15:35:00.017Z,99318.16
2019-05-25T15:39:21.148Z,99320.44
2019-05-25T15:43:41.609Z,99320.09
2019-05-25T15:48:02.203Z,99310.59
2019-05-25T15:52:23.194Z,99302.31
2019-05-25T15:56:43.354Z,99314.36
2019-05-25T16:01:03.751Z,99311.80
2019-05-25T16:05:24.398Z,99306.99
2019-05-25T16:09:45.537Z,99316.09
2019-05-25T16:14:07.898Z,99305.92
2019-05-25T16:18:28.786Z,99309.35
2019-05-25T16:22:50.258Z,99308.83
2019-05-25T16:27:11.405Z,99303.41
2019-05-25T16:31:33.096Z,99304.45
2019-05-25T16:35:57.751Z,99297.35
2019-05-25T16:40:16.836Z,99295.53
2019-05-25T16:48:54.820Z,99291.73
2019-05-25T16:53:15.771Z,99287.41
2019-05-25T16:57:36.416Z,99281.58
2019-05-25T17:01:57.538Z,99280.52
2019-05-25T17:06:17.891Z,99286.69
2019-05-25T17:10:38.059Z,99280.01
2019-05-25T17:14:59.097Z,99278.90
2019-05-25T17:19:20.376Z,99275.37
2019-05-25T17:23:40.705Z,99279.70
2019-05-25T17:28:00.668Z,99290.38
2019-05-25T17:32:21.298Z,99288.84
2019-05-25T17:36:42.567Z,99283.05
2019-05-25T17:41:02.467Z,99284.14
2019-05-25T17:45:22.960Z,99286.36
2019-05-25T17:49:43.357Z,99294.31
2019-05-25T17:54:03.924Z,99294.41
2019-05-25T17:58:24.256Z,99298.75
2019-05-25T18:02:45.710Z,99299.20
2019-05-25T18:07:06.370Z,99303.32
2019-05-25T18:11:27.353Z,99304.70
2019-05-25T18:15:47.847Z,99297.88
2019-05-25T18:20:11.996Z,99309.50
2019-05-25T18:24:32.356Z,99311.84
2019-05-25T18:28:52.960Z,99313.38
2019-05-25T18:33:13.767Z,99318.33
2019-05-25T18:37:33.969Z,99315.83
2019-05-25T18:41:54.786Z,99308.55
2019-05-25T18:46:15.382Z,99312.87
2019-05-25T18:50:35.614Z,99310.34
2019-05-25T18:54:56.549Z,99311.12
2019-05-25T18:59:17.285Z,99314.52
2019-05-25T19:03:37.436Z,99309.34
2019-05-25T19:07:57.520Z,99306.70
2019-05-25T19:12:18.262Z,99306.34
2019-05-25T19:16:39.305Z,99303.11
2019-05-25T19:21:00.238Z,99306.80
2019-05-25T19:25:32.906Z,99307.23
2019-05-25T19:30:03.092Z,99315.41
2019-05-25T19:34:19.249Z,99319.57
2019-05-25T19:38:40.889Z,99323.91
2019-05-25T19:43:03.088Z,99324.95
2019-05-25T19:47:23.735Z,99330.45
2019-05-25T19:51:44.813Z,99331.78
2019-05-25T19:56:05.523Z,99336.75
2019-05-25T20:00:26.576Z,99329.72
2019-05-25T20:04:47.384Z,99338.94
2019-05-25T20:09:08.560Z,99338.17
2019-05-25T20:13:35.692Z,99344.04
2019-05-25T20:18:51.035Z,99351.24
2019-05-25T20:22:43.108Z,99353.23
2019-05-25T20:27:10.417Z,99351.23
2019-05-25T20:31:38.273Z,99357.82
2019-05-25T20:35:59.172Z,99361.08
2019-05-25T20:40:19.589Z,99365.95
2019-05-25T20:44:40.436Z,99368.84
2019-05-25T20:49:00.929Z,99376.27
2019-05-25T20:53:21.429Z,99380.86
2019-05-25T20:57:41.889Z,99381.06
2019-05-25T21:02:03.331Z,99382.73
2019-05-25T21:06:24.264Z,99374.30
2019-05-25T21:10:44.936Z,99377.73
2019-05-25T21:15:06.342Z,99369.18
2019-05-25T21:19:26.689Z,99380.47
2019-05-25T21:23:48.392Z,99378.19
2019-05-25T21:28:09.115Z,99378.88
2019-05-25T21:32:30.028Z,99374.92
2019-05-25T21:36:50.446Z,99378.11
2019-05-25T21:41:10.829Z,99369.79
2019-05-25T21:45:37.065Z,99370.09
2019-05-25T21:49:59.031Z,99371.30
2019-05-25T21:54:20.304Z,99376.67
2019-05-25T21:58:41.476Z,99379.66
2019-05-25T22:03:02.320Z,99377.95
2019-05-25T22:07:23.289Z,99368.66
2019-05-25T22:11:44.441Z,99366.92
2019-05-25T22:16:05.569Z,99367.73
2019-05-25T22:20:26.729Z,99366.38
2019-05-25T22:24:47.272Z,99363.20
2019-05-25T22:29:16.536Z,99359.71
2019-05-25T22:33:37.184Z,99357.62
2019-05-25T22:37:58.045Z,99358.62
2019-05-25T22:42:18.342Z,99351.11
2019-05-25T22:46:39.129Z,99347.99
2019-05-25T22:51:00.094Z,99349.25
2019-05-25T22:55:20.836Z,99344.11
2019-05-25T22:59:41.898Z,99341.55
2019-05-25T23:04:02.438Z,99344.35
2019-05-25T23:08:23.970Z,99334.30
2019-05-25T23:12:44.376Z,99327.58
2019-05-25T23:17:04.865Z,99322.25
2019-05-25T23:21:25.768Z,99329.19
2019-05-25T23:25:46.581Z,99331.98
2019-05-25T23:30:07.863Z,99330.02
2019-05-25T23:34:28.512Z,99316.97
2019-05-25T23:38:48.790Z,99317.34
2019-05-25T23:43:09.078Z,99313.62
2019-05-25T23:47:29.547Z,99314.00
2019-05-25T23:51:50.675Z,99306.70
2019-05-25T23:56:11.940Z,99309.08
